sensor_id;sensor_type;location;lat;lon;timestamp;P1;durP1;ratioP1;P2;durP2;ratioP2
14141;SDS011;7151;52.246;4.820;2023-06-24T00:00:27;3.80;;;2.90;;
14141;SDS011;7151;52.246;4.820;2023-06-24T00:02:53;3.93;;;3.20;;
14141;SDS011;7151;52.246;4.820;2023-06-24T00:05:18;4.47;;;3.10;;
14141;SDS011;7151;52.246;4.820;2023-06-24T00:07:44;5.67;;;3.33;;
14141;SDS011;7151;52.246;4.820;2023-06-24T00:10:11;3.27;;;2.33;;
14141;SDS011;7151;52.246;4.820;2023-06-24T00:12:38;3.57;;;3.00;;
14141;SDS011;7151;52.246;4.820;2023-06-24T00:15:05;4.97;;;3.00;;
14141;SDS011;7151;52.246;4.820;2023-06-24T00:17:31;3.73;;;2.93;;
14141;SDS011;7151;52.246;4.820;2023-06-24T00:19:57;2.83;;;2.53;;
14141;SDS011;7151;52.246;4.820;2023-06-24T00:22:22;5.50;;;3.20;;
14141;SDS011;7151;52.246;4.820;2023-06-24T00:24:48;4.60;;;2.60;;
14141;SDS011;7151;52.246;4.820;2023-06-24T00:27:13;7.03;;;2.70;;
14141;SDS011;7151;52.246;4.820;2023-06-24T00:29:39;3.27;;;2.60;;
14141;SDS011;7151;52.246;4.820;2023-06-24T00:32:04;3.80;;;2.93;;
14141;SDS011;7151;52.246;4.820;2023-06-24T00:34:31;3.50;;;2.37;;
14141;SDS011;7151;52.246;4.820;2023-06-24T00:36:56;2.70;;;2.13;;
14141;SDS011;7151;52.246;4.820;2023-06-24T00:39:22;4.00;;;1.93;;
14141;SDS011;7151;52.246;4.820;2023-06-24T00:41:48;3.03;;;2.57;;
14141;SDS011;7151;52.246;4.820;2023-06-24T00:44:14;3.00;;;2.30;;
14141;SDS011;7151;52.246;4.820;2023-06-24T00:46:40;2.77;;;2.07;;
14141;SDS011;7151;52.246;4.820;2023-06-24T00:49:05;2.90;;;1.97;;
14141;SDS011;7151;52.246;4.820;2023-06-24T00:51:31;3.27;;;2.20;;
14141;SDS011;7151;52.246;4.820;2023-06-24T00:53:58;2.93;;;2.07;;
14141;SDS011;7151;52.246;4.820;2023-06-24T00:56:30;4.13;;;1.93;;
14141;SDS011;7151;52.246;4.820;2023-06-24T00:58:58;5.10;;;1.80;;
14141;SDS011;7151;52.246;4.820;2023-06-24T01:01:30;2.30;;;1.90;;
14141;SDS011;7151;52.246;4.820;2023-06-24T01:03:58;2.70;;;2.03;;
14141;SDS011;7151;52.246;4.820;2023-06-24T01:06:25;2.03;;;1.50;;
14141;SDS011;7151;52.246;4.820;2023-06-24T01:08:54;3.00;;;2.03;;
14141;SDS011;7151;52.246;4.820;2023-06-24T01:11:25;3.33;;;2.23;;
14141;SDS011;7151;52.246;4.820;2023-06-24T01:13:54;3.87;;;2.10;;
14141;SDS011;7151;52.246;4.820;2023-06-24T01:16:29;2.83;;;1.73;;
14141;SDS011;7151;52.246;4.820;2023-06-24T01:24:58;2.40;;;1.60;;
14141;SDS011;7151;52.246;4.820;2023-06-24T01:33:32;2.00;;;1.80;;
14141;SDS011;7151;52.246;4.820;2023-06-24T01:36:06;2.63;;;1.40;;
14141;SDS011;7151;52.246;4.820;2023-06-24T01:38:37;1.83;;;1.30;;
14141;SDS011;7151;52.246;4.820;2023-06-24T01:41:10;2.30;;;1.50;;
14141;SDS011;7151;52.246;4.820;2023-06-24T01:43:40;3.20;;;1.67;;
14141;SDS011;7151;52.246;4.820;2023-06-24T01:46:08;2.90;;;1.50;;
14141;SDS011;7151;52.246;4.820;2023-06-24T01:48:37;1.90;;;1.60;;
14141;SDS011;7151;52.246;4.820;2023-06-24T01:51:06;2.53;;;1.93;;
14141;SDS011;7151;52.246;4.820;2023-06-24T01:53:36;2.93;;;1.30;;
14141;SDS011;7151;52.246;4.820;2023-06-24T01:56:05;4.60;;;1.53;;
14141;SDS011;7151;52.246;4.820;2023-06-24T01:58:33;1.93;;;1.60;;
14141;SDS011;7151;52.246;4.820;2023-06-24T02:01:01;2.13;;;1.77;;
14141;SDS011;7151;52.246;4.820;2023-06-24T02:03:28;2.13;;;1.47;;
14141;SDS011;7151;52.246;4.820;2023-06-24T02:05:56;2.97;;;1.53;;
14141;SDS011;7151;52.246;4.820;2023-06-24T02:08:24;2.03;;;1.40;;
14141;SDS011;7151;52.246;4.820;2023-06-24T02:10:50;2.80;;;1.97;;
14141;SDS011;7151;52.246;4.820;2023-06-24T02:13:17;2.30;;;1.77;;
14141;SDS011;7151;52.246;4.820;2023-06-24T02:15:44;2.70;;;1.57;;
14141;SDS011;7151;52.246;4.820;2023-06-24T02:18:12;1.47;;;1.37;;
14141;SDS011;7151;52.246;4.820;2023-06-24T02:20:40;2.13;;;1.33;;
14141;SDS011;7151;52.246;4.820;2023-06-24T02:23:09;2.63;;;1.50;;
14141;SDS011;7151;52.246;4.820;2023-06-24T02:25:36;3.10;;;1.60;;
14141;SDS011;7151;52.246;4.820;2023-06-24T02:28:03;2.57;;;1.70;;
14141;SDS011;7151;52.246;4.820;2023-06-24T02:30:29;2.43;;;1.57;;
14141;SDS011;7151;52.246;4.820;2023-06-24T02:32:55;1.97;;;1.67;;
14141;SDS011;7151;52.246;4.820;2023-06-24T02:35:21;1.70;;;1.60;;
14141;SDS011;7151;52.246;4.820;2023-06-24T02:37:47;1.43;;;1.33;;
14141;SDS011;7151;52.246;4.820;2023-06-24T02:40:13;2.03;;;1.83;;
14141;SDS011;7151;52.246;4.820;2023-06-24T02:42:39;2.13;;;1.43;;
14141;SDS011;7151;52.246;4.820;2023-06-24T02:45:04;4.07;;;1.53;;
14141;SDS011;7151;52.246;4.820;2023-06-24T02:47:31;2.07;;;1.30;;
14141;SDS011;7151;52.246;4.820;2023-06-24T02:49:58;2.17;;;1.30;;
14141;SDS011;7151;52.246;4.820;2023-06-24T02:52:24;1.73;;;1.40;;
14141;SDS011;7151;52.246;4.820;2023-06-24T02:54:53;2.40;;;1.60;;
14141;SDS011;7151;52.246;4.820;2023-06-24T02:57:20;3.13;;;1.80;;
14141;SDS011;7151;52.246;4.820;2023-06-24T02:59:47;3.83;;;1.77;;
14141;SDS011;7151;52.246;4.820;2023-06-24T03:02:13;3.90;;;1.63;;
14141;SDS011;7151;52.246;4.820;2023-06-24T03:04:40;4.47;;;1.60;;
14141;SDS011;7151;52.246;4.820;2023-06-24T03:07:06;2.00;;;1.67;;
14141;SDS011;7151;52.246;4.820;2023-06-24T03:09:35;3.23;;;1.70;;
14141;SDS011;7151;52.246;4.820;2023-06-24T03:12:00;2.27;;;1.50;;
14141;SDS011;7151;52.246;4.820;2023-06-24T03:14:26;2.50;;;1.20;;
14141;SDS011;7151;52.246;4.820;2023-06-24T03:16:51;3.90;;;1.70;;
14141;SDS011;7151;52.246;4.820;2023-06-24T03:19:17;2.63;;;1.53;;
14141;SDS011;7151;52.246;4.820;2023-06-24T03:21:43;2.20;;;1.70;;
14141;SDS011;7151;52.246;4.820;2023-06-24T03:24:08;2.03;;;1.50;;
14141;SDS011;7151;52.246;4.820;2023-06-24T03:26:37;2.43;;;1.60;;
14141;SDS011;7151;52.246;4.820;2023-06-24T03:29:05;3.07;;;1.60;;
14141;SDS011;7151;52.246;4.820;2023-06-24T03:31:32;1.70;;;1.47;;
14141;SDS011;7151;52.246;4.820;2023-06-24T03:33:58;2.30;;;1.23;;
14141;SDS011;7151;52.246;4.820;2023-06-24T03:36:24;2.07;;;1.37;;
14141;SDS011;7151;52.246;4.820;2023-06-24T03:38:50;5.00;;;1.60;;
14141;SDS011;7151;52.246;4.820;2023-06-24T03:41:16;3.17;;;1.70;;
14141;SDS011;7151;52.246;4.820;2023-06-24T03:43:41;3.57;;;1.90;;
14141;SDS011;7151;52.246;4.820;2023-06-24T03:46:07;2.90;;;1.87;;
14141;SDS011;7151;52.246;4.820;2023-06-24T03:48:33;1.50;;;1.37;;
14141;SDS011;7151;52.246;4.820;2023-06-24T03:50:59;2.90;;;1.90;;
14141;SDS011;7151;52.246;4.820;2023-06-24T03:53:25;2.37;;;1.53;;
14141;SDS011;7151;52.246;4.820;2023-06-24T03:55:50;3.87;;;1.97;;
14141;SDS011;7151;52.246;4.820;2023-06-24T03:58:16;2.53;;;2.10;;
14141;SDS011;7151;52.246;4.820;2023-06-24T04:00:42;4.37;;;2.30;;
14141;SDS011;7151;52.246;4.820;2023-06-24T04:03:09;2.37;;;1.30;;
14141;SDS011;7151;52.246;4.820;2023-06-24T04:05:35;3.00;;;2.30;;
14141;SDS011;7151;52.246;4.820;2023-06-24T04:08:00;2.60;;;1.77;;
14141;SDS011;7151;52.246;4.820;2023-06-24T04:10:28;3.37;;;1.97;;
14141;SDS011;7151;52.246;4.820;2023-06-24T04:12:54;2.87;;;1.80;;
14141;SDS011;7151;52.246;4.820;2023-06-24T04:15:19;3.63;;;2.10;;
14141;SDS011;7151;52.246;4.820;2023-06-24T04:17:45;4.70;;;2.40;;
14141;SDS011;7151;52.246;4.820;2023-06-24T04:20:10;5.27;;;2.27;;
14141;SDS011;7151;52.246;4.820;2023-06-24T04:22:39;2.53;;;1.80;;
14141;SDS011;7151;52.246;4.820;2023-06-24T04:25:06;2.50;;;1.60;;
14141;SDS011;7151;52.246;4.820;2023-06-24T04:27:32;3.00;;;1.70;;
14141;SDS011;7151;52.246;4.820;2023-06-24T04:30:02;3.73;;;2.23;;
14141;SDS011;7151;52.246;4.820;2023-06-24T04:32:28;3.30;;;1.80;;
14141;SDS011;7151;52.246;4.820;2023-06-24T04:34:54;4.83;;;2.03;;
14141;SDS011;7151;52.246;4.820;2023-06-24T04:37:19;1.87;;;1.40;;
14141;SDS011;7151;52.246;4.820;2023-06-24T04:39:45;3.33;;;2.23;;
14141;SDS011;7151;52.246;4.820;2023-06-24T04:42:11;3.47;;;2.33;;
14141;SDS011;7151;52.246;4.820;2023-06-24T04:44:37;3.93;;;2.40;;
14141;SDS011;7151;52.246;4.820;2023-06-24T04:47:03;5.03;;;2.13;;
14141;SDS011;7151;52.246;4.820;2023-06-24T04:49:28;2.33;;;1.97;;
14141;SDS011;7151;52.246;4.820;2023-06-24T04:51:54;3.83;;;2.30;;
14141;SDS011;7151;52.246;4.820;2023-06-24T04:54:19;3.33;;;2.40;;
14141;SDS011;7151;52.246;4.820;2023-06-24T04:56:45;3.27;;;2.10;;
14141;SDS011;7151;52.246;4.820;2023-06-24T04:59:13;5.87;;;2.63;;
14141;SDS011;7151;52.246;4.820;2023-06-24T05:01:39;3.30;;;2.37;;
14141;SDS011;7151;52.246;4.820;2023-06-24T05:04:04;5.37;;;2.80;;
14141;SDS011;7151;52.246;4.820;2023-06-24T05:06:30;3.80;;;2.77;;
14141;SDS011;7151;52.246;4.820;2023-06-24T05:08:55;3.53;;;2.50;;
14141;SDS011;7151;52.246;4.820;2023-06-24T05:11:21;2.87;;;2.10;;
14141;SDS011;7151;52.246;4.820;2023-06-24T05:13:47;4.03;;;2.80;;
14141;SDS011;7151;52.246;4.820;2023-06-24T05:16:12;4.17;;;2.53;;
14141;SDS011;7151;52.246;4.820;2023-06-24T05:18:38;4.20;;;3.03;;
14141;SDS011;7151;52.246;4.820;2023-06-24T05:21:03;4.23;;;2.27;;
14141;SDS011;7151;52.246;4.820;2023-06-24T05:23:29;5.33;;;2.70;;
14141;SDS011;7151;52.246;4.820;2023-06-24T05:25:55;3.93;;;2.70;;
14141;SDS011;7151;52.246;4.820;2023-06-24T05:28:20;4.83;;;2.80;;
14141;SDS011;7151;52.246;4.820;2023-06-24T05:30:46;2.63;;;2.10;;
14141;SDS011;7151;52.246;4.820;2023-06-24T05:33:11;3.07;;;2.40;;
14141;SDS011;7151;52.246;4.820;2023-06-24T05:35:37;3.90;;;2.73;;
14141;SDS011;7151;52.246;4.820;2023-06-24T05:38:05;7.13;;;2.90;;
14141;SDS011;7151;52.246;4.820;2023-06-24T05:40:31;4.70;;;2.53;;
14141;SDS011;7151;52.246;4.820;2023-06-24T05:42:57;7.07;;;2.93;;
14141;SDS011;7151;52.246;4.820;2023-06-24T05:45:22;5.77;;;2.93;;
14141;SDS011;7151;52.246;4.820;2023-06-24T05:47:48;3.60;;;2.97;;
14141;SDS011;7151;52.246;4.820;2023-06-24T05:50:14;3.57;;;2.33;;
14141;SDS011;7151;52.246;4.820;2023-06-24T05:52:39;3.00;;;2.30;;
14141;SDS011;7151;52.246;4.820;2023-06-24T05:55:05;3.80;;;2.43;;
14141;SDS011;7151;52.246;4.820;2023-06-24T05:57:30;4.93;;;3.17;;
14141;SDS011;7151;52.246;4.820;2023-06-24T05:59:56;4.37;;;2.90;;
14141;SDS011;7151;52.246;4.820;2023-06-24T06:02:22;3.53;;;2.97;;
14141;SDS011;7151;52.246;4.820;2023-06-24T06:04:47;5.43;;;3.03;;
14141;SDS011;7151;52.246;4.820;2023-06-24T06:07:14;4.43;;;2.53;;
14141;SDS011;7151;52.246;4.820;2023-06-24T06:09:40;4.50;;;3.17;;
14141;SDS011;7151;52.246;4.820;2023-06-24T06:12:06;5.57;;;2.53;;
14141;SDS011;7151;52.246;4.820;2023-06-24T06:14:32;6.10;;;2.97;;
14141;SDS011;7151;52.246;4.820;2023-06-24T06:16:57;5.87;;;2.73;;
14141;SDS011;7151;52.246;4.820;2023-06-24T06:19:23;4.50;;;2.30;;
14141;SDS011;7151;52.246;4.820;2023-06-24T06:21:49;3.80;;;2.63;;
14141;SDS011;7151;52.246;4.820;2023-06-24T06:24:17;4.80;;;3.20;;
14141;SDS011;7151;52.246;4.820;2023-06-24T06:26:43;3.43;;;2.53;;
14141;SDS011;7151;52.246;4.820;2023-06-24T06:29:09;3.87;;;3.10;;
14141;SDS011;7151;52.246;4.820;2023-06-24T06:31:35;5.40;;;3.33;;
14141;SDS011;7151;52.246;4.820;2023-06-24T06:34:01;4.27;;;2.60;;
14141;SDS011;7151;52.246;4.820;2023-06-24T06:36:28;3.77;;;2.93;;
14141;SDS011;7151;52.246;4.820;2023-06-24T06:38:53;4.43;;;3.10;;
14141;SDS011;7151;52.246;4.820;2023-06-24T06:41:19;4.57;;;3.27;;
14141;SDS011;7151;52.246;4.820;2023-06-24T06:43:49;4.57;;;2.67;;
14141;SDS011;7151;52.246;4.820;2023-06-24T06:46:16;6.37;;;2.70;;
14141;SDS011;7151;52.246;4.820;2023-06-24T06:48:41;3.97;;;2.83;;
14141;SDS011;7151;52.246;4.820;2023-06-24T06:51:07;6.70;;;3.20;;
14141;SDS011;7151;52.246;4.820;2023-06-24T06:53:32;4.00;;;3.17;;
14141;SDS011;7151;52.246;4.820;2023-06-24T06:55:58;4.37;;;3.03;;
14141;SDS011;7151;52.246;4.820;2023-06-24T06:58:24;3.33;;;2.77;;
14141;SDS011;7151;52.246;4.820;2023-06-24T07:00:49;5.87;;;2.83;;
14141;SDS011;7151;52.246;4.820;2023-06-24T07:03:15;6.00;;;3.67;;
14141;SDS011;7151;52.246;4.820;2023-06-24T07:05:40;4.43;;;3.00;;
14141;SDS011;7151;52.246;4.820;2023-06-24T07:08:06;4.60;;;3.33;;
14141;SDS011;7151;52.246;4.820;2023-06-24T07:10:32;6.03;;;3.20;;
14141;SDS011;7151;52.246;4.820;2023-06-24T07:12:57;4.73;;;2.90;;
14141;SDS011;7151;52.246;4.820;2023-06-24T07:15:26;5.17;;;3.30;;
14141;SDS011;7151;52.246;4.820;2023-06-24T07:17:52;5.03;;;3.47;;
14141;SDS011;7151;52.246;4.820;2023-06-24T07:20:19;4.77;;;3.00;;
14141;SDS011;7151;52.246;4.820;2023-06-24T07:22:45;4.77;;;3.10;;
14141;SDS011;7151;52.246;4.820;2023-06-24T07:25:11;3.80;;;2.70;;
14141;SDS011;7151;52.246;4.820;2023-06-24T07:27:36;3.77;;;3.20;;
14141;SDS011;7151;52.246;4.820;2023-06-24T07:30:03;4.00;;;3.17;;
14141;SDS011;7151;52.246;4.820;2023-06-24T07:32:29;4.00;;;3.30;;
14141;SDS011;7151;52.246;4.820;2023-06-24T07:34:55;5.97;;;3.53;;
14141;SDS011;7151;52.246;4.820;2023-06-24T07:37:21;5.37;;;3.50;;
14141;SDS011;7151;52.246;4.820;2023-06-24T07:39:47;5.63;;;3.43;;
14141;SDS011;7151;52.246;4.820;2023-06-24T07:42:13;3.80;;;2.87;;
14141;SDS011;7151;52.246;4.820;2023-06-24T07:44:43;4.23;;;3.00;;
14141;SDS011;7151;52.246;4.820;2023-06-24T07:47:13;5.50;;;3.43;;
14141;SDS011;7151;52.246;4.820;2023-06-24T07:49:38;4.00;;;3.10;;
14141;SDS011;7151;52.246;4.820;2023-06-24T07:52:04;4.17;;;3.00;;
14141;SDS011;7151;52.246;4.820;2023-06-24T07:54:31;6.57;;;3.40;;
14141;SDS011;7151;52.246;4.820;2023-06-24T07:56:56;4.20;;;3.00;;
14141;SDS011;7151;52.246;4.820;2023-06-24T07:59:22;3.73;;;3.20;;
14141;SDS011;7151;52.246;4.820;2023-06-24T08:01:48;5.87;;;3.70;;
14141;SDS011;7151;52.246;4.820;2023-06-24T08:04:14;5.63;;;3.10;;
14141;SDS011;7151;52.246;4.820;2023-06-24T08:06:40;3.27;;;2.40;;
14141;SDS011;7151;52.246;4.820;2023-06-24T08:09:06;9.20;;;3.80;;
14141;SDS011;7151;52.246;4.820;2023-06-24T08:11:32;6.63;;;4.07;;
14141;SDS011;7151;52.246;4.820;2023-06-24T08:13:57;4.63;;;3.50;;
14141;SDS011;7151;52.246;4.820;2023-06-24T08:16:23;4.00;;;2.90;;
14141;SDS011;7151;52.246;4.820;2023-06-24T08:18:49;5.00;;;3.37;;
14141;SDS011;7151;52.246;4.820;2023-06-24T08:21:14;5.80;;;3.70;;
14141;SDS011;7151;52.246;4.820;2023-06-24T08:23:40;7.50;;;3.73;;
14141;SDS011;7151;52.246;4.820;2023-06-24T08:26:06;5.83;;;3.60;;
14141;SDS011;7151;52.246;4.820;2023-06-24T08:28:32;3.80;;;3.37;;
14141;SDS011;7151;52.246;4.820;2023-06-24T08:30:58;4.57;;;3.50;;
14141;SDS011;7151;52.246;4.820;2023-06-24T08:33:23;7.03;;;4.03;;
14141;SDS011;7151;52.246;4.820;2023-06-24T08:35:49;2.70;;;1.70;;
14141;SDS011;7151;52.246;4.820;2023-06-24T08:38:15;5.87;;;2.83;;
14141;SDS011;7151;52.246;4.820;2023-06-24T08:40:41;4.50;;;2.43;;
14141;SDS011;7151;52.246;4.820;2023-06-24T08:43:08;5.33;;;3.37;;
14141;SDS011;7151;52.246;4.820;2023-06-24T08:45:34;4.57;;;3.10;;
14141;SDS011;7151;52.246;4.820;2023-06-24T08:48:00;5.83;;;3.43;;
14141;SDS011;7151;52.246;4.820;2023-06-24T08:50:27;6.47;;;3.77;;
14141;SDS011;7151;52.246;4.820;2023-06-24T08:52:59;4.43;;;3.03;;
14141;SDS011;7151;52.246;4.820;2023-06-24T08:55:29;6.27;;;2.83;;
14141;SDS011;7151;52.246;4.820;2023-06-24T08:57:57;4.93;;;2.97;;
14141;SDS011;7151;52.246;4.820;2023-06-24T09:00:23;4.67;;;2.90;;
14141;SDS011;7151;52.246;4.820;2023-06-24T09:02:49;10.35;;;4.05;;
14141;SDS011;7151;52.246;4.820;2023-06-24T09:05:15;4.77;;;3.43;;
14141;SDS011;7151;52.246;4.820;2023-06-24T09:07:40;5.80;;;3.37;;
14141;SDS011;7151;52.246;4.820;2023-06-24T09:10:07;5.47;;;3.25;;
14141;SDS011;7151;52.246;4.820;2023-06-24T09:12:33;4.75;;;2.95;;
14141;SDS011;7151;52.246;4.820;2023-06-24T09:15:00;5.83;;;3.07;;
14141;SDS011;7151;52.246;4.820;2023-06-24T09:17:26;6.93;;;3.77;;
14141;SDS011;7151;52.246;4.820;2023-06-24T09:19:52;5.20;;;3.80;;
14141;SDS011;7151;52.246;4.820;2023-06-24T09:22:18;7.07;;;3.47;;
14141;SDS011;7151;52.246;4.820;2023-06-24T09:24:45;8.10;;;3.80;;
14141;SDS011;7151;52.246;4.820;2023-06-24T09:27:12;6.47;;;3.55;;
14141;SDS011;7151;52.246;4.820;2023-06-24T09:29:39;6.47;;;3.50;;
14141;SDS011;7151;52.246;4.820;2023-06-24T09:32:05;3.63;;;2.87;;
14141;SDS011;7151;52.246;4.820;2023-06-24T09:34:32;5.93;;;3.75;;
14141;SDS011;7151;52.246;4.820;2023-06-24T09:36:58;4.23;;;3.37;;
14141;SDS011;7151;52.246;4.820;2023-06-24T09:39:25;5.68;;;2.90;;
14141;SDS011;7151;52.246;4.820;2023-06-24T09:41:57;6.43;;;3.50;;
14141;SDS011;7151;52.246;4.820;2023-06-24T09:44:25;7.07;;;2.63;;
14141;SDS011;7151;52.246;4.820;2023-06-24T09:46:51;3.85;;;2.80;;
14141;SDS011;7151;52.246;4.820;2023-06-24T09:49:17;4.00;;;2.83;;
14141;SDS011;7151;52.246;4.820;2023-06-24T09:51:44;5.43;;;3.40;;
14141;SDS011;7151;52.246;4.820;2023-06-24T09:54:12;4.15;;;3.10;;
14141;SDS011;7151;52.246;4.820;2023-06-24T09:56:48;6.28;;;3.55;;
14141;SDS011;7151;52.246;4.820;2023-06-24T09:59:15;3.83;;;3.30;;
14141;SDS011;7151;52.246;4.820;2023-06-24T10:01:47;5.78;;;3.85;;
14141;SDS011;7151;52.246;4.820;2023-06-24T10:04:17;4.78;;;3.75;;
14141;SDS011;7151;52.246;4.820;2023-06-24T10:06:44;5.82;;;3.53;;
14141;SDS011;7151;52.246;4.820;2023-06-24T10:09:10;4.57;;;2.90;;
14141;SDS011;7151;52.246;4.820;2023-06-24T10:11:38;4.22;;;3.20;;
14141;SDS011;7151;52.246;4.820;2023-06-24T10:14:04;6.60;;;3.72;;
14141;SDS011;7151;52.246;4.820;2023-06-24T10:16:30;6.10;;;3.67;;
14141;SDS011;7151;52.246;4.820;2023-06-24T10:19:02;3.20;;;2.88;;
14141;SDS011;7151;52.246;4.820;2023-06-24T10:24:35;4.22;;;3.40;;
14141;SDS011;7151;52.246;4.820;2023-06-24T10:27:20;4.15;;;3.08;;
14141;SDS011;7151;52.246;4.820;2023-06-24T10:29:53;5.03;;;2.95;;
14141;SDS011;7151;52.246;4.820;2023-06-24T10:32:23;4.20;;;2.78;;
14141;SDS011;7151;52.246;4.820;2023-06-24T10:34:55;5.07;;;2.67;;
14141;SDS011;7151;52.246;4.820;2023-06-24T10:37:31;6.25;;;3.30;;
14141;SDS011;7151;52.246;4.820;2023-06-24T10:40:01;4.18;;;3.35;;
14141;SDS011;7151;52.246;4.820;2023-06-24T10:42:32;3.65;;;2.80;;
14141;SDS011;7151;52.246;4.820;2023-06-24T10:47:45;3.63;;;2.72;;
14141;SDS011;7151;52.246;4.820;2023-06-24T10:50:16;7.28;;;3.25;;
14141;SDS011;7151;52.246;4.820;2023-06-24T10:52:45;3.70;;;3.05;;
14141;SDS011;7151;52.246;4.820;2023-06-24T10:55:18;4.28;;;3.25;;
14141;SDS011;7151;52.246;4.820;2023-06-24T10:57:44;4.65;;;3.40;;
14141;SDS011;7151;52.246;4.820;2023-06-24T11:00:10;5.03;;;3.05;;
14141;SDS011;7151;52.246;4.820;2023-06-24T11:02:40;4.65;;;2.47;;
14141;SDS011;7151;52.246;4.820;2023-06-24T11:05:06;2.80;;;2.20;;
14141;SDS011;7151;52.246;4.820;2023-06-24T11:07:33;4.85;;;2.90;;
14141;SDS011;7151;52.246;4.820;2023-06-24T11:10:04;4.95;;;3.40;;
14141;SDS011;7151;52.246;4.820;2023-06-24T11:12:35;3.83;;;2.88;;
14141;SDS011;7151;52.246;4.820;2023-06-24T11:15:03;3.78;;;2.58;;
14141;SDS011;7151;52.246;4.820;2023-06-24T11:17:33;4.85;;;3.03;;
14141;SDS011;7151;52.246;4.820;2023-06-24T11:20:00;4.70;;;3.10;;
14141;SDS011;7151;52.246;4.820;2023-06-24T11:22:27;5.13;;;3.50;;
14141;SDS011;7151;52.246;4.820;2023-06-24T11:24:55;4.47;;;3.10;;
14141;SDS011;7151;52.246;4.820;2023-06-24T11:27:28;3.45;;;2.53;;
14141;SDS011;7151;52.246;4.820;2023-06-24T11:29:55;2.90;;;2.50;;
14141;SDS011;7151;52.246;4.820;2023-06-24T11:35:05;4.78;;;2.78;;
14141;SDS011;7151;52.246;4.820;2023-06-24T11:37:33;3.85;;;2.90;;
14141;SDS011;7151;52.246;4.820;2023-06-24T11:40:03;4.70;;;3.22;;
14141;SDS011;7151;52.246;4.820;2023-06-24T11:42:32;5.28;;;3.47;;
14141;SDS011;7151;52.246;4.820;2023-06-24T11:45:09;5.97;;;2.75;;
14141;SDS011;7151;52.246;4.820;2023-06-24T11:47:36;3.47;;;3.10;;
14141;SDS011;7151;52.246;4.820;2023-06-24T11:50:04;4.15;;;2.85;;
14141;SDS011;7151;52.246;4.820;2023-06-24T11:52:47;4.65;;;2.72;;
14141;SDS011;7151;52.246;4.820;2023-06-24T11:57:47;5.85;;;3.47;;
14141;SDS011;7151;52.246;4.820;2023-06-24T12:00:21;6.10;;;3.08;;
14141;SDS011;7151;52.246;4.820;2023-06-24T12:02:52;5.80;;;3.30;;
14141;SDS011;7151;52.246;4.820;2023-06-24T12:05:20;4.97;;;2.85;;
14141;SDS011;7151;52.246;4.820;2023-06-24T12:07:51;4.68;;;2.92;;
14141;SDS011;7151;52.246;4.820;2023-06-24T12:10:19;5.30;;;3.25;;
14141;SDS011;7151;52.246;4.820;2023-06-24T12:12:44;5.20;;;3.60;;
14141;SDS011;7151;52.246;4.820;2023-06-24T12:15:10;6.60;;;3.58;;
14141;SDS011;7151;52.246;4.820;2023-06-24T12:17:35;4.45;;;3.85;;
14141;SDS011;7151;52.246;4.820;2023-06-24T12:20:01;5.82;;;3.28;;
14141;SDS011;7151;52.246;4.820;2023-06-24T12:22:27;4.47;;;3.33;;
14141;SDS011;7151;52.246;4.820;2023-06-24T12:24:52;5.25;;;3.17;;
14141;SDS011;7151;52.246;4.820;2023-06-24T12:27:18;6.10;;;3.83;;
14141;SDS011;7151;52.246;4.820;2023-06-24T12:29:44;6.18;;;3.08;;
14141;SDS011;7151;52.246;4.820;2023-06-24T12:32:09;4.53;;;3.28;;
14141;SDS011;7151;52.246;4.820;2023-06-24T12:34:35;6.15;;;3.47;;
14141;SDS011;7151;52.246;4.820;2023-06-24T12:37:00;6.57;;;3.03;;
14141;SDS011;7151;52.246;4.820;2023-06-24T12:39:26;5.25;;;3.45;;
14141;SDS011;7151;52.246;4.820;2023-06-24T12:41:51;2.83;;;2.45;;
14141;SDS011;7151;52.246;4.820;2023-06-24T12:44:17;3.58;;;3.28;;
14141;SDS011;7151;52.246;4.820;2023-06-24T12:46:42;5.90;;;3.03;;
14141;SDS011;7151;52.246;4.820;2023-06-24T12:49:08;4.28;;;3.00;;
14141;SDS011;7151;52.246;4.820;2023-06-24T12:51:34;6.38;;;3.20;;
14141;SDS011;7151;52.246;4.820;2023-06-24T12:53:59;4.53;;;3.10;;
14141;SDS011;7151;52.246;4.820;2023-06-24T12:56:25;3.13;;;2.63;;
14141;SDS011;7151;52.246;4.820;2023-06-24T12:58:50;4.25;;;2.40;;
14141;SDS011;7151;52.246;4.820;2023-06-24T13:01:16;4.15;;;3.03;;
14141;SDS011;7151;52.246;4.820;2023-06-24T13:03:42;3.58;;;2.90;;
14141;SDS011;7151;52.246;4.820;2023-06-24T13:06:08;7.03;;;3.17;;
14141;SDS011;7151;52.246;4.820;2023-06-24T13:08:34;5.97;;;3.85;;
14141;SDS011;7151;52.246;4.820;2023-06-24T13:10:59;5.72;;;3.28;;
14141;SDS011;7151;52.246;4.820;2023-06-24T13:13:25;3.53;;;3.20;;
14141;SDS011;7151;52.246;4.820;2023-06-24T13:15:50;4.72;;;3.25;;
14141;SDS011;7151;52.246;4.820;2023-06-24T13:18:16;4.18;;;3.03;;
14141;SDS011;7151;52.246;4.820;2023-06-24T13:20:43;5.25;;;3.15;;
14141;SDS011;7151;52.246;4.820;2023-06-24T13:23:09;4.13;;;2.58;;
14141;SDS011;7151;52.246;4.820;2023-06-24T13:25:36;4.75;;;2.42;;
14141;SDS011;7151;52.246;4.820;2023-06-24T13:28:02;4.15;;;2.80;;
14141;SDS011;7151;52.246;4.820;2023-06-24T13:30:28;4.60;;;3.65;;
14141;SDS011;7151;52.246;4.820;2023-06-24T13:32:53;2.78;;;2.50;;
14141;SDS011;7151;52.246;4.820;2023-06-24T13:35:19;5.15;;;2.92;;
14141;SDS011;7151;52.246;4.820;2023-06-24T13:37:44;4.35;;;2.90;;
14141;SDS011;7151;52.246;4.820;2023-06-24T13:40:10;6.95;;;3.28;;
14141;SDS011;7151;52.246;4.820;2023-06-24T13:42:36;6.97;;;3.17;;
14141;SDS011;7151;52.246;4.820;2023-06-24T13:45:02;5.75;;;3.05;;
14141;SDS011;7151;52.246;4.820;2023-06-24T13:47:28;3.97;;;3.30;;
14141;SDS011;7151;52.246;4.820;2023-06-24T13:49:53;3.60;;;3.22;;
14141;SDS011;7151;52.246;4.820;2023-06-24T13:52:19;5.05;;;3.00;;
14141;SDS011;7151;52.246;4.820;2023-06-24T13:54:46;5.22;;;3.88;;
14141;SDS011;7151;52.246;4.820;2023-06-24T13:57:12;3.08;;;2.63;;
14141;SDS011;7151;52.246;4.820;2023-06-24T13:59:37;3.22;;;2.92;;
14141;SDS011;7151;52.246;4.820;2023-06-24T14:02:03;3.17;;;2.88;;
14141;SDS011;7151;52.246;4.820;2023-06-24T14:04:29;4.32;;;2.83;;
14141;SDS011;7151;52.246;4.820;2023-06-24T14:06:55;5.05;;;3.97;;
14141;SDS011;7151;52.246;4.820;2023-06-24T14:09:20;4.43;;;3.00;;
14141;SDS011;7151;52.246;4.820;2023-06-24T14:11:46;5.35;;;3.72;;
14141;SDS011;7151;52.246;4.820;2023-06-24T14:14:12;4.85;;;3.60;;
14141;SDS011;7151;52.246;4.820;2023-06-24T14:16:37;5.07;;;3.70;;
14141;SDS011;7151;52.246;4.820;2023-06-24T14:19:03;4.22;;;3.63;;
14141;SDS011;7151;52.246;4.820;2023-06-24T14:21:28;5.43;;;3.38;;
14141;SDS011;7151;52.246;4.820;2023-06-24T14:23:56;6.32;;;3.63;;
14141;SDS011;7151;52.246;4.820;2023-06-24T14:26:22;5.82;;;4.18;;
14141;SDS011;7151;52.246;4.820;2023-06-24T14:28:47;6.45;;;3.53;;
14141;SDS011;7151;52.246;4.820;2023-06-24T14:31:13;5.55;;;3.30;;
14141;SDS011;7151;52.246;4.820;2023-06-24T14:33:39;3.70;;;3.08;;
14141;SDS011;7151;52.246;4.820;2023-06-24T14:36:04;3.75;;;2.92;;
14141;SDS011;7151;52.246;4.820;2023-06-24T14:38:30;3.70;;;3.20;;
14141;SDS011;7151;52.246;4.820;2023-06-24T14:40:56;3.33;;;3.03;;
14141;SDS011;7151;52.246;4.820;2023-06-24T14:43:22;3.75;;;2.65;;
14141;SDS011;7151;52.246;4.820;2023-06-24T14:45:47;3.58;;;3.22;;
14141;SDS011;7151;52.246;4.820;2023-06-24T14:48:13;4.75;;;3.45;;
14141;SDS011;7151;52.246;4.820;2023-06-24T14:50:38;3.70;;;3.30;;
14141;SDS011;7151;52.246;4.820;2023-06-24T14:53:04;5.82;;;3.50;;
14141;SDS011;7151;52.246;4.820;2023-06-24T14:55:29;4.63;;;3.47;;
14141;SDS011;7151;52.246;4.820;2023-06-24T14:57:55;3.88;;;3.47;;
14141;SDS011;7151;52.246;4.820;2023-06-24T15:00:21;5.75;;;3.30;;
14141;SDS011;7151;52.246;4.820;2023-06-24T15:02:46;3.92;;;3.30;;
14141;SDS011;7151;52.246;4.820;2023-06-24T15:05:12;4.13;;;3.38;;
14141;SDS011;7151;52.246;4.820;2023-06-24T15:07:38;5.80;;;3.17;;
14141;SDS011;7151;52.246;4.820;2023-06-24T15:10:04;4.25;;;3.00;;
14141;SDS011;7151;52.246;4.820;2023-06-24T15:12:30;3.70;;;3.40;;
14141;SDS011;7151;52.246;4.820;2023-06-24T15:14:56;4.80;;;3.70;;
14141;SDS011;7151;52.246;4.820;2023-06-24T15:17:21;4.05;;;2.70;;
14141;SDS011;7151;52.246;4.820;2023-06-24T15:19:47;9.23;;;3.47;;